Time;durP1;ratioP1;P1;durP2;ratioP2;P2;SDS_P1;SDS_P2;PMS_P1;PMS_P2;Temp;Humidity;BMP_temperature;BMP_pressure;BME280_temperature;BME280_humidity;BME280_pressure;Samples;Min_cycle;Max_cycle;Signal;HPM_P1;HPM_P2
2022/12/20 00:00:54;;;;;;;9.30;6.70;;;9.30;99.90;;;;;;4890311;29;20139;-81
2022/12/20 00:03:20;;;;;;;6.88;5.57;;;9.20;99.90;;;;;;4910518;29;20577;-82
2022/12/20 00:05:46;;;;;;;8.00;6.38;;;9.20;99.90;;;;;;4897936;29;20079;-82
2022/12/20 00:08:12;;;;;;;7.32;5.90;;;9.20;99.90;;;;;;4909048;29;20059;-82
2022/12/20 00:10:43;;;;;;;9.25;6.75;;;9.30;99.90;;;;;;4910562;29;20581;-80
2022/12/20 00:13:10;;;;;;;8.18;5.95;;;9.20;99.90;;;;;;4925720;29;20047;-80
2022/12/20 00:15:39;;;;;;;7.57;6.10;;;9.20;99.90;;;;;;4906803;29;20126;-80
2022/12/20 00:18:05;;;;;;;9.25;6.43;;;9.20;99.90;;;;;;4919334;29;20098;-80
2022/12/20 00:20:30;;;;;;;7.43;6.22;;;9.20;99.90;;;;;;4912679;29;20071;-80
2022/12/20 00:22:56;;;;;;;8.73;6.60;;;9.20;99.90;;;;;;4914313;29;20498;-79
2022/12/20 00:25:22;;;;;;;9.18;6.28;;;9.20;99.90;;;;;;4888469;28;20509;-80
2022/12/20 00:27:49;;;;;;;8.55;6.07;;;9.20;99.90;;;;;;4913495;29;20047;-80
2022/12/20 00:30:15;;;;;;;7.70;6.32;;;9.30;99.90;;;;;;4905085;29;20071;-81
2022/12/20 00:32:43;;;;;;;9.63;6.20;;;9.30;99.90;;;;;;4915638;29;20035;-82
2022/12/20 00:35:09;;;;;;;8.52;6.38;;;9.40;99.90;;;;;;4911469;29;20619;-81
2022/12/20 00:37:35;;;;;;;10.38;5.97;;;9.40;99.90;;;;;;4889492;28;20040;-82
2022/12/20 00:40:05;;;;;;;7.25;5.93;;;9.40;99.90;;;;;;4903941;29;20058;-81
2022/12/20 00:42:31;;;;;;;8.60;6.65;;;9.40;99.90;;;;;;4907106;29;20514;-81
2022/12/20 00:45:11;;;;;;;8.25;5.93;;;9.40;99.90;;;;;;4908754;29;20083;-81
2022/12/20 00:47:36;;;;;;;7.65;6.15;;;9.40;99.90;;;;;;4881195;29;20043;-81
2022/12/20 00:50:02;;;;;;;9.00;5.55;;;9.40;99.90;;;;;;4923310;29;20509;-81
2022/12/20 00:52:37;;;;;;;8.70;5.90;;;9.40;99.90;;;;;;4911838;29;20057;-81
2022/12/20 00:55:03;;;;;;;7.40;5.22;;;9.50;99.90;;;;;;4911229;29;20115;-81
2022/12/20 00:57:29;;;;;;;8.55;5.88;;;9.50;99.90;;;;;;4922219;29;20048;-82
2022/12/20 01:00:07;;;;;;;6.90;5.75;;;9.50;99.90;;;;;;4927441;29;20039;-82
2022/12/20 01:02:33;;;;;;;7.40;5.32;;;9.50;99.90;;;;;;4924794;29;20090;-81
2022/12/20 01:04:59;;;;;;;8.30;5.95;;;9.60;99.90;;;;;;4913638;29;20071;-81
2022/12/20 01:07:24;;;;;;;7.95;5.57;;;9.60;99.90;;;;;;4913256;29;20457;-81
2022/12/20 01:09:51;;;;;;;7.18;5.25;;;9.60;99.90;;;;;;4897397;29;20044;-81
2022/12/20 01:12:18;;;;;;;6.80;5.28;;;9.60;99.90;;;;;;4908730;29;20047;-81
2022/12/20 01:14:44;;;;;;;6.95;5.10;;;9.60;99.90;;;;;;4899375;29;20044;-81
2022/12/20 01:17:09;;;;;;;6.75;5.10;;;9.60;99.90;;;;;;4909232;29;20042;-81
2022/12/20 01:19:35;;;;;;;6.45;5.13;;;9.60;99.90;;;;;;4915187;29;20047;-81
2022/12/20 01:22:04;;;;;;;6.45;5.25;;;9.60;99.90;;;;;;4901539;29;20393;-82
2022/12/20 01:24:29;;;;;;;7.72;5.40;;;9.50;99.90;;;;;;4922720;29;20129;-83
2022/12/20 01:26:55;;;;;;;7.35;4.90;;;9.50;99.90;;;;;;4904668;29;20790;-81
2022/12/20 01:29:21;;;;;;;5.97;5.00;;;9.50;99.90;;;;;;4918540;29;20221;-81
2022/12/20 01:31:47;;;;;;;6.57;4.80;;;9.60;99.90;;;;;;4894896;29;20127;-81
2022/12/20 01:34:13;;;;;;;7.78;5.40;;;9.50;99.90;;;;;;4908204;29;20130;-81
2022/12/20 01:36:39;;;;;;;6.38;4.80;;;9.50;99.90;;;;;;4913694;29;20042;-81
2022/12/20 01:39:12;;;;;;;8.88;5.50;;;9.50;99.90;;;;;;4925267;29;20525;-81
2022/12/20 01:41:39;;;;;;;7.40;5.05;;;9.40;99.90;;;;;;4906076;29;20067;-81
2022/12/20 01:44:15;;;;;;;8.02;5.43;;;9.50;99.90;;;;;;4901572;29;20102;-81
2022/12/20 01:46:41;;;;;;;6.20;5.00;;;9.50;99.90;;;;;;4918822;29;20102;-81
2022/12/20 01:49:19;;;;;;;6.78;5.20;;;9.50;99.90;;;;;;4909750;29;20052;-82
2022/12/20 01:52:07;;;;;;;7.88;5.00;;;9.50;99.90;;;;;;4907317;29;20044;-80
2022/12/20 01:54:41;;;;;;;6.32;5.10;;;9.50;99.90;;;;;;4903821;29;20066;-81
2022/12/20 01:57:16;;;;;;;6.85;4.70;;;9.50;99.90;;;;;;4920032;29;20114;-81
2022/12/20 01:59:45;;;;;;;6.97;5.05;;;9.50;99.90;;;;;;4899421;29;20091;-81
2022/12/20 02:02:11;;;;;;;8.27;5.13;;;9.50;99.90;;;;;;4921608;29;20047;-81
2022/12/20 02:04:38;;;;;;;8.55;5.15;;;9.40;99.90;;;;;;4900999;28;20452;-81
2022/12/20 02:07:06;;;;;;;7.07;5.15;;;9.50;99.90;;;;;;4897016;29;20079;-82
2022/12/20 02:09:34;;;;;;;6.28;4.97;;;9.50;99.90;;;;;;4900192;29;20253;-81
2022/12/20 02:12:21;;;;;;;6.65;5.15;;;9.40;99.90;;;;;;4898985;29;20573;-81
2022/12/20 02:15:29;;;;;;;7.55;5.00;;;9.50;99.90;;;;;;4913163;29;20039;-81
2022/12/20 02:18:22;;;;;;;6.40;4.90;;;9.50;99.90;;;;;;4898205;29;20047;-82
2022/12/20 02:21:11;;;;;;;6.47;4.55;;;9.50;99.90;;;;;;4915074;29;20470;-81
2022/12/20 02:24:15;;;;;;;6.07;4.60;;;9.60;99.90;;;;;;4915672;29;20439;-81
2022/12/20 02:26:50;;;;;;;7.05;5.15;;;9.60;99.90;;;;;;4911911;29;20055;-81
2022/12/20 02:29:24;;;;;;;5.78;4.53;;;9.60;99.90;;;;;;4915689;29;20486;-82
2022/12/20 02:32:18;;;;;;;7.45;4.70;;;9.60;99.90;;;;;;4920589;29;20051;-79
2022/12/20 02:34:44;;;;;;;7.45;4.80;;;9.70;99.90;;;;;;4906828;28;20052;-81
2022/12/20 02:37:10;;;;;;;6.90;4.75;;;9.70;99.90;;;;;;4893217;29;20111;-81
2022/12/20 02:39:39;;;;;;;6.20;5.10;;;9.70;99.90;;;;;;4918434;28;20047;-82
2022/12/20 02:42:11;;;;;;;5.68;4.65;;;9.70;99.90;;;;;;4899070;29;20051;-82
2022/12/20 02:45:16;;;;;;;7.60;4.47;;;9.70;99.90;;;;;;4901807;29;20515;-82
2022/12/20 02:47:47;;;;;;;6.97;5.07;;;9.80;99.90;;;;;;4915708;29;20044;-82
2022/12/20 02:50:16;;;;;;;7.18;5.03;;;9.70;99.90;;;;;;4909799;29;20055;-82
2022/12/20 02:52:42;;;;;;;6.97;5.40;;;9.70;99.90;;;;;;4919660;29;20135;-82
2022/12/20 02:55:08;;;;;;;7.90;5.30;;;9.70;99.90;;;;;;4928682;29;20122;-82
2022/12/20 02:57:55;;;;;;;7.68;5.05;;;9.70;99.90;;;;;;4902497;29;20518;-81
2022/12/20 03:00:22;;;;;;;8.32;5.72;;;9.70;99.90;;;;;;4916330;29;20047;-81
2022/12/20 03:05:44;;;;;;;8.65;5.88;;;9.60;99.90;;;;;;4930408;29;20043;-80
2022/12/20 03:08:10;;;;;;;8.45;6.72;;;9.60;99.90;;;;;;4891526;29;20064;-79
2022/12/20 03:10:36;;;;;;;9.70;6.93;;;9.60;99.90;;;;;;4914795;29;20040;-79
2022/12/20 03:13:02;;;;;;;7.90;6.32;;;9.50;99.90;;;;;;4905339;29;20047;-79
2022/12/20 03:15:28;;;;;;;10.00;6.57;;;9.50;99.90;;;;;;4915832;29;20051;-79
2022/12/20 03:17:53;;;;;;;9.27;7.13;;;9.50;99.90;;;;;;4914631;29;20059;-79
2022/12/20 03:20:19;;;;;;;7.22;6.50;;;9.50;99.90;;;;;;4916640;29;20130;-78
2022/12/20 03:22:48;;;;;;;8.23;7.25;;;9.50;99.90;;;;;;4914363;29;20052;-80
2022/12/20 03:25:14;;;;;;;10.23;7.05;;;9.40;99.90;;;;;;4915713;29;20103;-79
2022/12/20 03:27:42;;;;;;;7.47;6.70;;;9.40;99.90;;;;;;4904695;29;20466;-79
2022/12/20 03:30:08;;;;;;;10.00;6.82;;;9.40;99.90;;;;;;4891891;29;20527;-79
2022/12/20 03:32:34;;;;;;;10.10;6.80;;;9.40;99.90;;;;;;4913043;29;20056;-79
2022/12/20 03:35:00;;;;;;;10.02;7.00;;;9.40;99.90;;;;;;4883465;29;20583;-78
2022/12/20 03:37:26;;;;;;;8.27;6.47;;;9.40;99.90;;;;;;4892322;29;20041;-79
2022/12/20 03:39:54;;;;;;;8.70;7.05;;;9.40;99.90;;;;;;4894521;29;20716;-79
2022/12/20 03:42:20;;;;;;;9.45;6.88;;;9.40;99.90;;;;;;4901455;29;20040;-79
2022/12/20 03:44:47;;;;;;;6.95;6.22;;;9.40;99.90;;;;;;4922741;28;20043;-78
2022/12/20 03:47:12;;;;;;;9.77;6.68;;;9.40;99.90;;;;;;4881588;29;20562;-79
2022/12/20 03:49:38;;;;;;;8.82;7.03;;;9.50;99.90;;;;;;4886512;29;20180;-79
2022/12/20 03:52:04;;;;;;;9.68;7.30;;;9.40;99.90;;;;;;4892930;29;20511;-79
2022/12/20 03:54:30;;;;;;;9.15;7.43;;;9.50;99.90;;;;;;4898127;29;20120;-78
2022/12/20 03:56:56;;;;;;;7.53;6.78;;;9.50;99.90;;;;;;4889116;29;20049;-79
2022/12/20 03:59:22;;;;;;;8.35;6.95;;;9.50;99.90;;;;;;4919991;29;20055;-78
2022/12/20 04:01:48;;;;;;;9.68;6.90;;;9.50;99.90;;;;;;4904145;29;20049;-78
2022/12/20 04:04:14;;;;;;;8.45;6.95;;;9.50;99.90;;;;;;4884115;29;20044;-79
2022/12/20 04:06:41;;;;;;;7.85;7.05;;;9.50;99.90;;;;;;4900876;29;20051;-78
2022/12/20 04:09:06;;;;;;;8.68;6.70;;;9.50;99.90;;;;;;4917730;29;20084;-79
2022/12/20 04:11:32;;;;;;;8.43;7.13;;;9.50;99.90;;;;;;4891922;29;20079;-79
2022/12/20 04:13:58;;;;;;;7.75;6.75;;;9.50;99.90;;;;;;4927134;28;20176;-79
2022/12/20 04:16:26;;;;;;;10.98;7.88;;;9.50;99.90;;;;;;4918349;29;20106;-80
2022/12/20 04:18:52;;;;;;;9.90;7.38;;;9.60;99.90;;;;;;4910500;29;20040;-79
2022/12/20 04:21:23;;;;;;;9.93;7.32;;;9.60;99.90;;;;;;4902242;29;20832;-81
2022/12/20 04:23:49;;;;;;;9.30;8.02;;;9.60;99.90;;;;;;4891630;29;20080;-79
2022/12/20 04:26:16;;;;;;;10.10;8.23;;;9.60;99.90;;;;;;4893049;29;20384;-79
2022/12/20 04:28:42;;;;;;;10.88;8.20;;;9.60;99.90;;;;;;4910953;29;20036;-81
2022/12/20 04:31:09;;;;;;;8.65;7.50;;;9.60;99.90;;;;;;4892381;29;20057;-81
2022/12/20 04:33:35;;;;;;;9.05;8.15;;;9.60;99.90;;;;;;4899677;29;20100;-80
2022/12/20 04:36:07;;;;;;;10.20;7.57;;;9.60;99.90;;;;;;4890554;29;20041;-80
2022/12/20 04:38:33;;;;;;;9.43;8.40;;;9.50;99.90;;;;;;4889142;29;20086;-80
2022/12/20 04:40:58;;;;;;;11.35;8.75;;;9.50;99.90;;;;;;4900566;29;20084;-79
2022/12/20 04:43:25;;;;;;;9.23;8.15;;;9.50;99.90;;;;;;4886393;29;20107;-79
2022/12/20 04:45:55;;;;;;;10.10;8.05;;;9.50;99.90;;;;;;4886121;29;20106;-78
2022/12/20 04:48:23;;;;;;;8.23;7.43;;;9.60;99.90;;;;;;4908199;29;20461;-79
2022/12/20 04:50:55;;;;;;;9.00;8.00;;;9.60;99.90;;;;;;4920253;29;20044;-79
2022/12/20 04:56:07;;;;;;;9.20;7.53;;;9.60;99.90;;;;;;4888173;29;20045;-81
2022/12/20 04:58:33;;;;;;;8.73;7.53;;;9.60;99.90;;;;;;4884386;29;20135;-79
2022/12/20 05:00:59;;;;;;;9.10;6.80;;;9.70;99.90;;;;;;4897179;29;20057;-81
2022/12/20 05:03:25;;;;;;;8.02;7.18;;;9.70;99.90;;;;;;4907951;29;20075;-80
2022/12/20 05:05:52;;;;;;;8.40;7.45;;;9.70;99.90;;;;;;4892845;29;20041;-80
2022/12/20 05:08:18;;;;;;;7.82;6.78;;;9.80;99.90;;;;;;4916323;29;20150;-79
2022/12/20 05:10:44;;;;;;;7.40;6.63;;;9.80;99.90;;;;;;4912306;29;20052;-80
2022/12/20 05:13:10;;;;;;;8.40;6.03;;;9.90;99.90;;;;;;4905756;29;20057;-80
2022/12/20 05:15:36;;;;;;;9.10;6.78;;;9.80;99.90;;;;;;4886717;29;20514;-79
2022/12/20 05:18:05;;;;;;;6.90;6.20;;;9.80;99.90;;;;;;4876189;29;20088;-80
2022/12/20 05:20:31;;;;;;;8.57;6.75;;;9.90;99.90;;;;;;4880098;29;20068;-80
2022/12/20 05:28:30;;;;;;;7.95;5.88;;;9.90;99.90;;;;;;4893850;29;20053;-81
2022/12/20 05:30:56;;;;;;;7.55;6.20;;;10.00;99.90;;;;;;4899852;29;20135;-81
2022/12/20 05:33:22;;;;;;;7.60;5.82;;;10.00;99.90;;;;;;4886586;29;20618;-81
2022/12/20 05:35:47;;;;;;;6.65;5.72;;;10.00;99.90;;;;;;4925022;28;20040;-81
2022/12/20 05:38:13;;;;;;;9.10;5.55;;;10.00;99.90;;;;;;4881519;29;20049;-81
2022/12/20 05:40:40;;;;;;;6.43;5.43;;;10.00;99.90;;;;;;4881900;29;20053;-80
2022/12/20 05:43:06;;;;;;;7.35;5.78;;;10.10;99.90;;;;;;4900476;29;20070;-80
2022/12/20 05:45:35;;;;;;;7.05;5.85;;;10.10;99.90;;;;;;4902774;29;20052;-80
2022/12/20 05:48:04;;;;;;;7.57;5.53;;;10.10;99.90;;;;;;4882615;29;20060;-81
2022/12/20 05:50:30;;;;;;;6.15;5.40;;;10.10;99.90;;;;;;4917323;29;20076;-81
2022/12/20 05:52:55;;;;;;;7.47;5.45;;;10.10;99.90;;;;;;4900506;29;20491;-82
2022/12/20 05:55:21;;;;;;;6.13;5.32;;;10.20;99.90;;;;;;4920652;29;20048;-81
2022/12/20 05:57:47;;;;;;;7.07;5.00;;;10.20;99.90;;;;;;4876969;29;20628;-82
2022/12/20 06:00:14;;;;;;;8.50;5.35;;;10.20;99.90;;;;;;4897570;29;20045;-81
2022/12/20 06:02:40;;;;;;;8.55;5.43;;;10.10;99.90;;;;;;4870472;29;20504;-81
2022/12/20 06:05:06;;;;;;;7.40;5.10;;;10.20;99.90;;;;;;4899630;29;20051;-82
2022/12/20 06:07:35;;;;;;;7.22;5.15;;;10.10;99.90;;;;;;4894882;29;20295;-82
2022/12/20 06:10:01;;;;;;;7.63;5.18;;;10.10;99.90;;;;;;4900179;29;20056;-82
2022/12/20 06:12:29;;;;;;;8.30;4.97;;;10.20;99.90;;;;;;4900493;29;20045;-81
2022/12/20 06:14:56;;;;;;;6.43;4.95;;;10.20;99.90;;;;;;4892148;29;20059;-83
2022/12/20 06:17:24;;;;;;;7.07;4.93;;;10.20;99.90;;;;;;4881308;29;20218;-82
2022/12/20 06:19:50;;;;;;;7.55;5.53;;;10.20;99.90;;;;;;4875181;29;20045;-81
2022/12/20 06:22:15;;;;;;;6.75;4.78;;;10.20;99.90;;;;;;4871000;29;20431;-82
2022/12/20 06:24:41;;;;;;;9.07;5.25;;;10.20;99.90;;;;;;4882638;29;20100;-82
2022/12/20 06:27:07;;;;;;;6.95;4.78;;;10.20;99.90;;;;;;4875762;29;20103;-82
2022/12/20 06:29:36;;;;;;;7.28;5.10;;;10.20;99.90;;;;;;4883755;29;20064;-82
2022/12/20 06:32:05;;;;;;;7.20;4.97;;;10.30;99.90;;;;;;4913542;29;20059;-82
2022/12/20 06:34:32;;;;;;;6.35;4.70;;;10.30;99.90;;;;;;4891558;29;20044;-83
2022/12/20 06:36:57;;;;;;;8.30;6.05;;;10.30;99.90;;;;;;4925836;29;20043;-83
2022/12/20 06:39:23;;;;;;;7.75;6.28;;;10.40;99.90;;;;;;4895673;29;20102;-82
2022/12/20 06:41:49;;;;;;;10.65;6.72;;;10.40;99.90;;;;;;4902931;29;20047;-82
2022/12/20 06:44:15;;;;;;;9.07;7.07;;;10.30;99.90;;;;;;4912915;29;20058;-82
2022/12/20 06:46:40;;;;;;;9.35;7.50;;;10.30;99.90;;;;;;4905381;29;20116;-83
2022/12/20 06:49:07;;;;;;;9.27;7.53;;;10.30;99.90;;;;;;4902682;29;20147;-85
2022/12/20 06:51:32;;;;;;;9.48;8.40;;;10.30;99.90;;;;;;4919593;29;20047;-85
2022/12/20 06:53:58;;;;;;;9.38;8.18;;;10.30;99.90;;;;;;4929912;29;20052;-86
2022/12/20 06:56:24;;;;;;;10.52;8.48;;;10.30;99.90;;;;;;4909487;29;20059;-85
2022/12/20 06:58:50;;;;;;;9.48;8.38;;;10.20;99.90;;;;;;4908646;29;20042;-84
2022/12/20 07:01:15;;;;;;;10.10;8.63;;;10.20;99.90;;;;;;4906714;29;20131;-85
2022/12/20 07:03:41;;;;;;;13.40;9.68;;;10.20;99.90;;;;;;4906781;29;20111;-86
2022/12/20 07:06:07;;;;;;;11.07;9.80;;;10.20;99.90;;;;;;4911313;29;20050;-87
2022/12/20 07:08:33;;;;;;;12.20;10.88;;;10.20;99.90;;;;;;4897617;29;20039;-87
2022/12/20 07:11:09;;;;;;;12.88;10.55;;;10.20;99.90;;;;;;4887495;29;20043;-88
2022/12/20 07:13:38;;;;;;;11.02;9.90;;;10.20;99.90;;;;;;4915282;29;20506;-86
2022/12/20 07:16:04;;;;;;;12.43;10.52;;;10.20;99.90;;;;;;4930669;29;20545;-88
2022/12/20 07:18:31;;;;;;;12.07;10.63;;;10.20;99.90;;;;;;4912362;29;20100;-88
2022/12/20 07:21:05;;;;;;;12.30;11.15;;;10.20;99.90;;;;;;4912652;29;20040;-86
2022/12/20 07:23:34;;;;;;;12.25;10.98;;;10.20;99.90;;;;;;4931776;29;20717;-88
2022/12/20 07:26:00;;;;;;;11.45;10.25;;;10.20;99.90;;;;;;4912288;29;20573;-88
2022/12/20 07:28:27;;;;;;;12.35;11.15;;;10.20;99.90;;;;;;4922899;29;20044;-88
2022/12/20 07:30:53;;;;;;;11.80;10.60;;;10.20;99.90;;;;;;4920873;29;20278;-86
2022/12/20 07:33:20;;;;;;;12.35;11.15;;;10.20;99.90;;;;;;4917205;29;20044;-88
2022/12/20 07:35:46;;;;;;;13.20;10.65;;;10.20;99.90;;;;;;4937704;28;20051;-87
2022/12/20 07:38:12;;;;;;;11.55;10.30;;;10.20;99.90;;;;;;4911432;29;20060;-88
2022/12/20 07:40:42;;;;;;;12.07;10.07;;;10.20;99.90;;;;;;4897208;29;20458;-87
2022/12/20 07:43:09;;;;;;;11.38;10.18;;;10.30;99.90;;;;;;4923761;29;20055;-88
2022/12/20 07:45:38;;;;;;;11.70;9.85;;;10.30;99.90;;;;;;4916792;29;20048;-87
2022/12/20 07:48:04;;;;;;;12.63;9.68;;;10.20;99.90;;;;;;4888804;29;20047;-87
2022/12/20 07:50:34;;;;;;;10.73;9.63;;;10.20;99.90;;;;;;4915949;29;20056;-88
2022/12/20 07:53:01;;;;;;;;;;;10.20;99.90;;;;;;4919671;29;20525;-87
2022/12/20 07:55:30;;;;;;;9.68;8.68;;;10.20;99.90;;;;;;4893255;29;19933;-87
2022/12/20 07:58:03;;;;;;;10.43;9.43;;;10.20;99.90;;;;;;4899930;29;20106;-88
2022/12/20 08:00:29;;;;;;;11.48;9.38;;;10.20;99.90;;;;;;4926962;29;20123;-88
2022/12/20 08:03:04;;;;;;;11.75;8.93;;;10.20;99.90;;;;;;4896432;29;20051;-88
2022/12/20 08:05:36;;;;;;;10.80;9.13;;;10.20;99.90;;;;;;4922483;29;20487;-87
2022/12/20 08:08:06;;;;;;;9.07;8.18;;;10.20;99.90;;;;;;4927533;29;20085;-88
2022/12/20 08:10:37;;;;;;;9.15;8.25;;;10.30;99.90;;;;;;4872447;29;20513;-87
2022/12/20 08:13:05;;;;;;;11.00;8.48;;;10.30;99.90;;;;;;4913044;29;20557;-87
2022/12/20 08:15:35;;;;;;;8.43;6.90;;;10.30;99.90;;;;;;4908620;29;20117;-88
2022/12/20 08:18:01;;;;;;;11.25;7.40;;;10.30;99.90;;;;;;4895948;29;20058;-87
2022/12/20 08:20:29;;;;;;;7.65;6.93;;;10.30;99.90;;;;;;4911856;29;20137;-87
2022/12/20 08:22:55;;;;;;;7.60;6.13;;;10.40;99.90;;;;;;4913864;28;20039;-87
2022/12/20 08:25:21;;;;;;;9.30;6.45;;;10.40;99.90;;;;;;4914703;29;20052;-88
2022/12/20 08:27:48;;;;;;;7.22;5.80;;;10.40;99.90;;;;;;4893906;29;20043;-87
2022/12/20 08:30:14;;;;;;;7.05;5.25;;;10.50;99.90;;;;;;4896811;29;20564;-88
2022/12/20 08:32:40;;;;;;;9.40;5.43;;;10.50;99.90;;;;;;4896532;29;20052;-87
2022/12/20 08:35:07;;;;;;;8.63;5.90;;;10.50;99.90;;;;;;4902969;29;20071;-87
2022/12/20 08:37:34;;;;;;;8.52;5.68;;;10.50;99.90;;;;;;4880364;29;20118;-88
2022/12/20 08:40:00;;;;;;;9.00;5.80;;;10.50;99.90;;;;;;4896295;29;20059;-88
2022/12/20 08:42:26;;;;;;;7.18;4.97;;;10.50;99.90;;;;;;4904897;29;20499;-88
2022/12/20 08:44:52;;;;;;;7.97;5.30;;;10.50;99.90;;;;;;4853116;29;20515;-88
2022/12/20 08:47:18;;;;;;;6.93;4.82;;;10.60;99.90;;;;;;4884730;29;20080;-87
2022/12/20 08:49:44;;;;;;;7.97;4.63;;;10.60;99.90;;;;;;4890063;29;20125;-86
2022/12/20 08:52:10;;;;;;;6.97;4.80;;;10.60;99.90;;;;;;4877659;29;20056;-89
2022/12/20 08:54:38;;;;;;;5.82;4.63;;;10.70;99.90;;;;;;4891126;29;20055;-80
2022/12/20 08:57:04;;;;;;;6.82;4.68;;;10.60;99.90;;;;;;4877684;29;20147;-80
2022/12/20 08:59:30;;;;;;;6.32;4.72;;;10.70;99.90;;;;;;4868784;29;20808;-87
2022/12/20 09:01:56;;;;;;;6.72;4.57;;;10.60;99.90;;;;;;4906782;29;20048;-88
2022/12/20 09:04:21;;;;;;;7.25;4.43;;;10.70;99.90;;;;;;4899429;29;20123;-88
2022/12/20 09:06:48;;;;;;;5.13;4.18;;;10.70;99.90;;;;;;4894953;29;20059;-87
2022/12/20 09:09:15;;;;;;;6.93;4.53;;;10.70;99.90;;;;;;4886194;29;20319;-87
2022/12/20 09:11:41;;;;;;;6.38;4.60;;;10.70;99.90;;;;;;4890101;29;20587;-87
2022/12/20 09:14:07;;;;;;;7.15;4.65;;;10.70;99.90;;;;;;4867078;29;20052;-88
2022/12/20 09:16:33;;;;;;;7.47;4.15;;;10.70;99.90;;;;;;4887210;29;20064;-88
2022/12/20 09:19:00;;;;;;;6.53;4.32;;;10.70;99.90;;;;;;4888354;29;20491;-87
2022/12/20 09:21:27;;;;;;;6.72;4.45;;;10.70;99.90;;;;;;4879461;29;20044;-88
2022/12/20 09:23:54;;;;;;;5.82;4.22;;;10.70;99.90;;;;;;4873838;29;20044;-88
2022/12/20 09:26:21;;;;;;;8.90;4.53;;;10.70;99.90;;;;;;4886266;29;20078;-88
2022/12/20 09:28:47;;;;;;;7.03;4.80;;;10.70;99.90;;;;;;4882139;29;20480;-88
2022/12/20 09:31:18;;;;;;;8.38;4.30;;;10.70;99.90;;;;;;4887946;29;20384;-87
2022/12/20 09:33:44;;;;;;;7.50;4.40;;;10.70;99.90;;;;;;4898896;29;20143;-85
2022/12/20 09:36:12;;;;;;;7.35;4.45;;;10.80;99.90;;;;;;4894082;29;20052;-86
2022/12/20 09:38:38;;;;;;;7.78;4.60;;;10.90;99.90;;;;;;4898424;29;20163;-87
2022/12/20 09:41:06;;;;;;;6.82;4.22;;;10.80;99.90;;;;;;4879630;29;20139;-88
2022/12/20 09:43:33;;;;;;;6.57;4.70;;;10.80;99.90;;;;;;4880466;29;20100;-88
2022/12/20 09:46:01;;;;;;;5.97;3.85;;;10.80;99.90;;;;;;4883808;29;20504;-88
2022/12/20 09:48:34;;;;;;;;;;;10.80;99.90;;;;;;4886968;29;20573;-88
2022/12/20 09:51:09;;;;;;;7.90;4.32;;;10.80;99.90;;;;;;4882189;29;19928;-89
2022/12/20 09:53:47;;;;;;;6.95;4.38;;;10.80;99.90;;;;;;4880547;29;20052;-88
2022/12/20 09:56:25;;;;;;;7.78;4.35;;;10.80;99.90;;;;;;4900026;29;20104;-88
2022/12/20 09:59:18;;;;;;;6.43;4.47;;;10.70;99.90;;;;;;4903361;29;20504;-88
2022/12/20 10:01:49;;;;;;;9.05;4.63;;;10.70;99.90;;;;;;4889836;29;20507;-85
2022/12/20 10:04:22;;;;;;;8.27;5.32;;;10.70;99.90;;;;;;4897805;29;20055;-87
2022/12/20 10:06:54;;;;;;;7.40;4.78;;;10.70;99.90;;;;;;4910175;29;20097;-87
2022/12/20 10:09:39;;;;;;;8.15;4.40;;;10.70;99.90;;;;;;4895707;29;20048;-86
2022/12/20 10:12:35;;;;;;;6.32;4.93;;;10.70;99.90;;;;;;4892544;29;20045;-88
2022/12/20 10:15:21;;;;;;;7.72;4.68;;;10.60;99.90;;;;;;4884498;29;20108;-88
2022/12/20 10:18:12;;;;;;;8.20;5.05;;;10.60;99.90;;;;;;4916543;29;20048;-88
2022/12/20 10:20:57;;;;;;;7.30;5.05;;;10.60;99.90;;;;;;4896682;29;20534;-87
2022/12/20 10:23:45;;;;;;;7.75;4.95;;;10.60;99.90;;;;;;4891017;29;20048;-87
2022/12/20 10:26:12;;;;;;;7.90;5.78;;;10.60;99.90;;;;;;4900459;29;20115;-88
2022/12/20 10:28:39;;;;;;;8.32;5.40;;;10.50;99.90;;;;;;4901345;29;20527;-87
2022/12/20 10:31:16;;;;;;;6.30;4.88;;;10.50;99.90;;;;;;4900565;29;20416;-87
2022/12/20 10:33:43;;;;;;;6.80;4.88;;;10.50;99.90;;;;;;4889440;29;20080;-87
2022/12/20 10:36:34;;;;;;;7.10;5.68;;;10.40;99.90;;;;;;4886915;29;20124;-87
2022/12/20 10:39:05;;;;;;;11.20;5.88;;;10.50;99.90;;;;;;4896627;29;20060;-87
2022/12/20 10:41:41;;;;;;;7.60;5.88;;;10.50;99.90;;;;;;4910755;29;20052;-87
2022/12/20 10:44:24;;;;;;;7.47;5.80;;;10.40;99.90;;;;;;4893448;29;20044;-87
2022/12/20 10:46:54;;;;;;;8.25;5.50;;;10.50;99.90;;;;;;4905988;29;20583;-88
2022/12/20 10:49:28;;;;;;;10.07;5.72;;;10.40;99.90;;;;;;4874400;29;20056;-87
2022/12/20 10:51:56;;;;;;;8.38;6.15;;;10.40;99.90;;;;;;4925534;29;20044;-87
2022/12/20 10:54:28;;;;;;;9.00;6.85;;;10.40;99.90;;;;;;4895716;29;20063;-87
2022/12/20 10:57:00;;;;;;;7.78;6.05;;;10.40;99.90;;;;;;4898397;29;20148;-87
2022/12/20 10:59:34;;;;;;;8.15;6.20;;;10.40;99.90;;;;;;4880686;29;20045;-89
2022/12/20 11:01:59;;;;;;;8.43;6.25;;;10.30;99.90;;;;;;4904981;29;20048;-87
2022/12/20 11:04:37;;;;;;;9.18;6.75;;;10.30;99.90;;;;;;4882289;29;20052;-86
2022/12/20 11:07:23;;;;;;;9.38;6.50;;;10.40;99.90;;;;;;4895530;29;20519;-87
2022/12/20 11:09:57;;;;;;;7.45;6.40;;;10.40;99.90;;;;;;4892097;29;20048;-87
2022/12/20 11:12:23;;;;;;;10.52;7.07;;;10.40;99.90;;;;;;4891481;29;20056;-87
2022/12/20 11:15:05;;;;;;;9.05;6.75;;;10.30;99.90;;;;;;4897081;29;20041;-86
2022/12/20 11:17:46;;;;;;;9.93;6.72;;;10.40;99.90;;;;;;4923051;29;20495;-88
2022/12/20 11:20:30;;;;;;;;;;;10.40;99.90;;;;;;4893994;29;20381;-88
2022/12/20 11:23:27;;;;;;;9.05;6.50;;;10.40;99.90;;;;;;4902461;29;19923;-87
2022/12/20 11:26:31;;;;;;;8.77;6.97;;;10.40;99.90;;;;;;4889163;29;20041;-88
2022/12/20 11:29:18;;;;;;;9.95;6.95;;;10.40;99.90;;;;;;4890107;29;20059;-86
2022/12/20 11:31:53;;;;;;;7.38;6.47;;;10.40;99.90;;;;;;4886007;29;20053;-86
2022/12/20 11:34:36;;;;;;;9.75;7.03;;;10.40;99.90;;;;;;4892701;29;20143;-88
2022/12/20 11:37:24;;;;;;;9.23;5.93;;;10.40;99.90;;;;;;4881135;29;20053;-88
2022/12/20 11:40:20;;;;;;;9.57;7.05;;;10.40;99.90;;;;;;4905875;29;20530;-87
2022/12/20 11:42:46;;;;;;;7.28;5.82;;;10.50;99.90;;;;;;4902063;29;20114;-88
2022/12/20 11:45:36;;;;;;;7.60;5.60;;;10.40;99.90;;;;;;4889097;29;20567;-87
2022/12/20 11:48:20;;;;;;;6.75;5.32;;;10.50;99.90;;;;;;4887719;29;20499;-88
2022/12/20 11:50:58;;;;;;;7.93;5.57;;;10.50;99.90;;;;;;4899712;29;20044;-88
2022/12/20 11:53:42;;;;;;;6.93;5.82;;;10.50;99.90;;;;;;4893272;29;20059;-87
2022/12/20 11:56:32;;;;;;;7.88;6.28;;;10.50;99.90;;;;;;4892165;29;20048;-87
2022/12/20 11:59:09;;;;;;;8.75;6.28;;;10.60;99.90;;;;;;4892473;29;20083;-88
2022/12/20 12:01:42;;;;;;;8.65;6.55;;;10.50;99.90;;;;;;4879007;29;20117;-86
2022/12/20 12:04:18;;;;;;;8.10;6.55;;;10.50;99.90;;;;;;4888292;29;20132;-87
2022/12/20 12:07:07;;;;;;;7.55;6.40;;;10.50;99.90;;;;;;4887944;29;20575;-89
2022/12/20 12:10:15;;;;;;;8.93;6.18;;;10.50;99.90;;;;;;4879836;29;20096;-88
2022/12/20 12:13:12;;;;;;;8.15;6.32;;;10.50;99.90;;;;;;4880223;29;20142;-88
2022/12/20 12:15:57;;;;;;;10.73;6.50;;;10.50;99.90;;;;;;4870643;29;20052;-88
2022/12/20 12:18:28;;;;;;;8.68;7.68;;;10.50;99.90;;;;;;4889499;29;20053;-87
2022/12/20 12:21:18;;;;;;;8.40;6.93;;;10.50;99.90;;;;;;4863954;29;20394;-87
2022/12/20 12:23:58;;;;;;;8.18;7.30;;;10.50;99.90;;;;;;4888976;29;20079;-88
2022/12/20 12:26:29;;;;;;;10.57;7.40;;;10.50;99.90;;;;;;4876549;29;20040;-87
2022/12/20 12:28:58;;;;;;;9.55;8.18;;;10.50;99.90;;;;;;4901474;29;20083;-88
2022/12/20 12:31:43;;;;;;;11.43;8.75;;;10.50;99.90;;;;;;4862555;29;20048;-87
2022/12/20 12:34:46;;;;;;;12.07;9.38;;;10.50;99.90;;;;;;4890609;29;20068;-87
2022/12/20 12:37:34;;;;;;;10.32;9.13;;;10.40;99.90;;;;;;4884907;29;20056;-87
2022/12/20 12:40:15;;;;;;;12.48;10.00;;;10.40;99.90;;;;;;4888676;29;20048;-87
2022/12/20 12:43:07;;;;;;;11.25;10.05;;;10.40;99.90;;;;;;4889652;29;20407;-88
2022/12/20 12:45:45;;;;;;;11.15;9.32;;;10.40;99.90;;;;;;4887460;29;20180;-87
2022/12/20 12:48:33;;;;;;;11.07;9.15;;;10.40;99.90;;;;;;4869836;29;20530;-88
2022/12/20 12:51:01;;;;;;;10.90;9.75;;;10.40;99.90;;;;;;4891842;29;20074;-87
2022/12/20 12:53:35;;;;;;;10.55;9.05;;;10.40;99.90;;;;;;4880391;29;20048;-87
2022/12/20 12:56:26;;;;;;;10.95;9.57;;;10.40;99.90;;;;;;4898791;29;20165;-87
2022/12/20 12:59:13;;;;;;;10.57;9.35;;;10.40;99.90;;;;;;4895167;29;20044;-87
2022/12/20 13:02:05;;;;;;;13.73;10.52;;;10.40;99.90;;;;;;4883007;29;20093;-87
2022/12/20 13:04:51;;;;;;;11.40;10.07;;;10.40;99.90;;;;;;4890444;29;20084;-87
2022/12/20 13:07:39;;;;;;;12.50;11.20;;;10.40;99.90;;;;;;4872495;29;20516;-87
2022/12/20 13:10:08;;;;;;;13.30;10.75;;;10.40;99.90;;;;;;4904215;29;20511;-86
2022/12/20 13:12:37;;;;;;;13.20;12.00;;;10.40;99.90;;;;;;4884276;29;20096;-81
2022/12/20 13:15:21;;;;;;;14.13;12.63;;;10.40;99.90;;;;;;4881715;29;21299;-87
2022/12/20 13:17:50;;;;;;;13.20;11.38;;;10.40;99.90;;;;;;4883423;29;20079;-87
2022/12/20 13:20:37;;;;;;;14.10;12.63;;;10.40;99.90;;;;;;4873354;29;20056;-86